Time;durP1;ratioP1;P1;durP2;ratioP2;P2;SDS_P1;SDS_P2;PMS_P1;PMS_P2;Temp;Humidity;BMP_temperature;BMP_pressure;BME280_temperature;BME280_humidity;BME280_pressure;Samples;Min_cycle;Max_cycle;Signal;HPM_P1;HPM_P2
2023/06/15 00:01:04;;;;;;;12.75;9.93;;;;;;;18.68;70.37;94857.03;5087366;28;20016;-73
2023/06/15 00:03:30;;;;;;;11.18;9.27;;;;;;;18.67;70.07;94849.94;5088119;28;20018;-73
2023/06/15 00:05:56;;;;;;;11.02;8.82;;;;;;;18.69;70.19;94846.66;5085958;28;20078;-73
2023/06/15 00:08:21;;;;;;;11.80;8.65;;;;;;;18.70;70.12;94845.44;5088006;28;20062;-73
2023/06/15 00:10:47;;;;;;;10.35;9.13;;;;;;;18.69;69.89;94850.22;5086823;28;20027;-73
2023/06/15 00:13:13;;;;;;;11.15;9.43;;;;;;;18.69;69.96;94843.88;5069564;28;20074;-73
2023/06/15 00:15:39;;;;;;;11.23;9.52;;;;;;;18.71;69.83;94849.75;5088074;28;20024;-73
2023/06/15 00:18:05;;;;;;;12.07;10.32;;;;;;;18.64;69.86;94847.34;5088187;28;20105;-73
2023/06/15 00:20:31;;;;;;;13.40;10.05;;;;;;;18.61;69.78;94842.78;5087803;28;20035;-73
2023/06/15 00:22:58;;;;;;;11.90;10.63;;;;;;;18.63;69.70;94849.38;5086972;28;20032;-73
2023/06/15 00:25:23;;;;;;;11.93;9.90;;;;;;;18.62;69.49;94847.84;5086175;28;20028;-73
2023/06/15 00:27:49;;;;;;;12.02;9.82;;;;;;;18.61;69.64;94845.56;5087745;28;20069;-73
2023/06/15 00:30:14;;;;;;;12.10;10.68;;;;;;;18.63;69.61;94832.66;5087606;28;20099;-74
2023/06/15 00:32:40;;;;;;;10.80;9.70;;;;;;;18.64;69.67;94836.22;5086550;28;20030;-73
2023/06/15 00:35:06;;;;;;;10.68;9.50;;;;;;;18.67;69.66;94840.81;5087987;28;20058;-74
2023/06/15 00:37:31;;;;;;;11.68;9.55;;;;;;;18.67;69.42;94829.69;5087934;28;20024;-73
2023/06/15 00:39:56;;;;;;;11.73;9.93;;;;;;;18.67;69.58;94830.47;5086803;28;20032;-73
2023/06/15 00:42:22;;;;;;;12.10;9.90;;;;;;;18.67;69.42;94833.25;5087324;28;20449;-73
2023/06/15 00:44:47;;;;;;;12.32;10.40;;;;;;;18.71;69.57;94831.00;5087773;28;20104;-74
2023/06/15 00:47:13;;;;;;;12.40;10.93;;;;;;;18.71;69.69;94835.81;5086045;28;20030;-74
2023/06/15 00:49:39;;;;;;;13.10;11.55;;;;;;;18.73;69.67;94830.50;5087033;28;20102;-73
2023/06/15 00:52:05;;;;;;;13.80;10.77;;;;;;;18.71;69.75;94831.00;5086048;28;20466;-73
2023/06/15 00:54:31;;;;;;;14.85;12.55;;;;;;;18.76;69.81;94833.09;5087178;28;20024;-73
2023/06/15 00:56:56;;;;;;;14.18;12.60;;;;;;;18.77;69.61;94831.06;5086360;28;20075;-73
2023/06/15 00:59:22;;;;;;;16.13;12.07;;;;;;;18.76;69.74;94824.72;5086076;28;20027;-73
2023/06/15 01:01:48;;;;;;;13.52;11.10;;;;;;;18.74;70.12;94832.81;5087706;28;20028;-73
2023/06/15 01:04:14;;;;;;;13.18;10.85;;;;;;;18.77;70.03;94831.06;5087268;28;20487;-74
2023/06/15 01:06:42;;;;;;;12.88;10.75;;;;;;;18.78;69.87;94833.34;5086746;28;20036;-73
2023/06/15 01:09:09;;;;;;;13.57;10.43;;;;;;;18.77;69.93;94831.81;5087368;28;20478;-73
2023/06/15 01:11:35;;;;;;;13.75;10.73;;;;;;;18.79;69.99;94820.19;5085768;28;20723;-73
2023/06/15 01:14:01;;;;;;;14.77;10.98;;;;;;;18.80;69.73;94830.81;5086295;28;20020;-73
2023/06/15 01:16:29;;;;;;;11.80;10.38;;;;;;;18.82;69.97;94824.78;5068554;28;20028;-73
2023/06/15 01:18:58;;;;;;;13.05;10.85;;;;;;;18.81;70.20;94826.81;5087071;28;20058;-73
2023/06/15 01:21:27;;;;;;;12.10;10.52;;;;;;;18.83;70.25;94815.94;5087143;28;20092;-72
2023/06/15 01:24:11;;;;;;;14.25;11.55;;;;;;;18.82;69.88;94814.41;5087185;28;20016;-72
2023/06/15 01:26:38;;;;;;;13.18;11.63;;;;;;;18.83;70.45;94820.72;5086818;28;20130;-73
2023/06/15 01:29:05;;;;;;;12.73;10.88;;;;;;;18.81;70.58;94817.69;5068908;28;20058;-73
2023/06/15 01:31:30;;;;;;;14.90;11.50;;;;;;;18.81;70.33;94809.34;5068850;28;20124;-73
2023/06/15 01:33:55;;;;;;;14.98;10.73;;;;;;;18.81;70.62;94804.53;5086842;28;20107;-73
2023/06/15 01:36:21;;;;;;;13.50;11.05;;;;;;;18.80;70.50;94802.97;5087212;28;20452;-73
2023/06/15 01:38:50;;;;;;;15.40;11.70;;;;;;;18.80;70.53;94800.19;5085292;28;20117;-73
2023/06/15 01:41:16;;;;;;;15.57;11.23;;;;;;;18.79;70.39;94797.91;5085828;28;20036;-73
2023/06/15 01:43:42;;;;;;;13.55;10.48;;;;;;;18.79;70.99;94806.25;5086595;28;20039;-72
2023/06/15 01:46:08;;;;;;;14.98;11.30;;;;;;;18.78;70.64;94796.38;5085417;28;20021;-73
2023/06/15 01:48:33;;;;;;;13.60;11.40;;;;;;;18.78;70.76;94797.16;5085091;28;20495;-75
2023/06/15 01:51:00;;;;;;;13.15;10.85;;;;;;;18.79;70.44;94807.03;5086829;28;20467;-74
2023/06/15 01:53:25;;;;;;;13.68;10.88;;;;;;;18.78;70.41;94796.38;5085924;28;20077;-73
2023/06/15 01:55:51;;;;;;;14.77;11.55;;;;;;;18.72;70.13;94792.78;5068164;28;20028;-73
2023/06/15 01:58:16;;;;;;;13.90;11.10;;;;;;;18.72;70.24;94793.56;5085601;28;20016;-74
2023/06/15 02:00:43;;;;;;;15.70;11.95;;;;;;;18.72;70.15;94796.34;5086532;28;20632;-74
2023/06/15 02:03:08;;;;;;;15.15;12.02;;;;;;;18.69;70.22;94796.56;5085682;28;20020;-74
2023/06/15 02:05:39;;;;;;;17.55;12.32;;;;;;;18.66;70.10;94803.84;5086106;28;20040;-74
2023/06/15 02:08:08;;;;;;;15.07;12.23;;;;;;;18.66;69.98;94794.75;5086642;28;20035;-74
2023/06/15 02:10:34;;;;;;;16.40;11.50;;;;;;;18.59;70.04;94793.16;5086832;28;20035;-74
2023/06/15 02:13:00;;;;;;;16.13;11.70;;;;;;;18.61;69.97;94792.66;5086642;28;20036;-75
2023/06/15 02:15:25;;;;;;;15.02;11.40;;;;;;;18.63;70.20;94790.91;5087004;28;20047;-74
2023/06/15 02:17:58;;;;;;;15.50;12.23;;;;;;;18.66;70.05;94795.50;5084902;28;20486;-74
2023/06/15 02:20:23;;;;;;;16.00;12.40;;;;;;;18.66;69.89;94787.16;5086599;28;20024;-74
2023/06/15 02:22:52;;;;;;;15.90;12.43;;;;;;;18.66;69.87;94784.38;5085063;28;20710;-74
2023/06/15 02:25:21;;;;;;;17.05;12.32;;;;;;;18.69;69.96;94790.97;5086431;28;20028;-74
2023/06/15 02:27:46;;;;;;;15.20;11.82;;;;;;;18.70;70.33;94790.50;5086361;28;20112;-73
2023/06/15 02:30:12;;;;;;;17.13;13.95;;;;;;;18.72;70.49;94787.22;5088229;28;20097;-74
2023/06/15 02:32:39;;;;;;;16.08;12.85;;;;;;;18.71;70.60;94782.91;5090295;28;20101;-74
2023/06/15 02:35:10;;;;;;;16.75;12.50;;;;;;;18.73;70.83;94783.19;5089920;28;20020;-73
2023/06/15 02:37:36;;;;;;;14.70;11.65;;;;;;;18.72;70.66;94788.00;5088736;28;20036;-73
2023/06/15 02:40:06;;;;;;;15.05;11.90;;;;;;;18.73;70.92;94783.19;5088224;28;20016;-74
2023/06/15 02:42:31;;;;;;;16.75;12.90;;;;;;;18.73;71.05;94778.38;5088753;28;20028;-74
2023/06/15 02:44:57;;;;;;;14.23;11.77;;;;;;;18.74;71.04;94779.91;5088292;28;20548;-73
2023/06/15 02:47:23;;;;;;;15.90;12.25;;;;;;;18.73;70.46;94781.16;5088264;28;20477;-74
2023/06/15 02:49:49;;;;;;;15.55;12.60;;;;;;;18.70;70.76;94779.38;5088146;28;20020;-74
2023/06/15 02:52:14;;;;;;;15.25;12.13;;;;;;;18.74;70.65;94779.13;5089698;28;20060;-73
2023/06/15 02:54:40;;;;;;;14.75;11.75;;;;;;;18.74;70.95;94782.69;5071299;28;20107;-74
2023/06/15 02:57:06;;;;;;;17.52;12.30;;;;;;;18.73;71.03;94792.28;5089368;28;20042;-74
2023/06/15 02:59:36;;;;;;;17.48;12.65;;;;;;;18.72;70.96;94793.56;5071268;28;20035;-73
2023/06/15 03:02:04;;;;;;;19.38;12.88;;;;;;;18.76;71.00;94785.00;5070969;28;20477;-73
2023/06/15 03:04:30;;;;;;;16.33;12.30;;;;;;;18.75;71.01;94780.66;5089021;28;20024;-73
2023/06/15 03:06:57;;;;;;;20.50;12.30;;;;;;;18.76;71.02;94780.19;5089316;28;20036;-74
2023/06/15 03:09:23;;;;;;;16.08;12.10;;;;;;;18.78;71.02;94785.25;5089021;28;20027;-74
2023/06/15 03:11:50;;;;;;;14.82;11.57;;;;;;;18.76;70.68;94782.22;5087934;28;20537;-73
2023/06/15 03:14:18;;;;;;;14.60;11.52;;;;;;;18.78;70.30;94788.03;5088984;28;20032;-73
2023/06/15 03:16:46;;;;;;;15.93;11.77;;;;;;;18.79;70.45;94790.31;5087678;28;20492;-73
2023/06/15 03:19:15;;;;;;;15.98;11.57;;;;;;;18.80;70.61;94791.84;5088917;28;20074;-73
2023/06/15 03:21:41;;;;;;;16.27;11.85;;;;;;;18.80;70.71;94783.47;5088817;28;20058;-73
2023/06/15 03:24:08;;;;;;;18.20;12.20;;;;;;;18.82;70.83;94781.00;5089166;28;20020;-73
2023/06/15 03:26:36;;;;;;;18.75;12.23;;;;;;;18.82;70.55;94780.22;5087566;28;20054;-73
2023/06/15 03:29:02;;;;;;;15.55;11.55;;;;;;;18.80;70.87;94777.16;5087546;28;20016;-73
2023/06/15 03:31:28;;;;;;;15.57;11.55;;;;;;;18.82;70.49;94780.22;5088781;28;20027;-73
2023/06/15 03:33:57;;;;;;;15.90;12.32;;;;;;;18.86;70.65;94777.19;5088383;28;20016;-73
2023/06/15 03:36:25;;;;;;;15.07;12.63;;;;;;;18.84;70.53;94784.03;5087261;28;20491;-73
2023/06/15 03:38:50;;;;;;;15.35;11.65;;;;;;;18.83;70.69;94784.53;5088771;28;20032;-73
2023/06/15 03:41:16;;;;;;;14.45;11.93;;;;;;;18.83;70.43;94776.19;5088809;28;20020;-73
2023/06/15 03:43:41;;;;;;;15.82;12.23;;;;;;;18.83;70.31;94776.94;5088488;28;20034;-74
2023/06/15 03:46:07;;;;;;;15.75;12.50;;;;;;;18.84;70.39;94774.91;5088482;28;20028;-74
2023/06/15 03:48:32;;;;;;;14.38;12.27;;;;;;;18.87;70.80;94781.50;5086817;28;20099;-74
2023/06/15 03:50:58;;;;;;;14.13;11.48;;;;;;;18.86;70.46;94777.19;5088263;28;20026;-74
2023/06/15 03:53:26;;;;;;;15.40;11.43;;;;;;;18.88;70.58;94774.69;5086981;28;20030;-74
2023/06/15 03:55:51;;;;;;;14.77;12.05;;;;;;;18.88;70.83;94786.59;5087008;28;20479;-73
2023/06/15 03:58:17;;;;;;;14.68;11.02;;;;;;;18.91;70.71;94784.84;5088033;28;20030;-73
2023/06/15 04:00:46;;;;;;;13.73;11.82;;;;;;;18.93;70.45;94785.88;5088025;28;20089;-73
2023/06/15 04:03:12;;;;;;;12.75;11.43;;;;;;;18.95;70.60;94788.16;5088527;28;20031;-74
2023/06/15 04:05:38;;;;;;;13.27;10.90;;;;;;;18.95;70.66;94791.72;5087415;28;20040;-73
2023/06/15 04:08:03;;;;;;;13.18;11.38;;;;;;;18.99;70.33;94797.06;5085459;28;20059;-73
2023/06/15 04:10:29;;;;;;;12.23;10.90;;;;;;;19.00;70.60;94790.22;5085825;28;20402;-74
2023/06/15 04:12:54;;;;;;;13.90;11.68;;;;;;;19.04;70.12;94788.75;5086449;28;20046;-74
2023/06/15 04:15:19;;;;;;;14.10;11.50;;;;;;;19.09;69.97;94792.81;5086756;28;20030;-74
2023/06/15 04:17:48;;;;;;;13.85;11.15;;;;;;;19.11;69.93;94790.31;5085450;28;20035;-74
2023/06/15 04:20:14;;;;;;;14.38;11.70;;;;;;;19.15;69.60;94793.59;5086747;28;20047;-73
2023/06/15 04:22:39;;;;;;;14.30;11.48;;;;;;;19.23;69.33;94791.13;5085624;28;20479;-74
2023/06/15 04:25:06;;;;;;;16.08;11.75;;;;;;;19.29;69.13;94787.13;5085389;28;20031;-74
2023/06/15 04:27:34;;;;;;;13.15;10.63;;;;;;;19.37;69.10;94785.38;5086871;28;20028;-74
2023/06/15 04:30:00;;;;;;;14.57;10.80;;;;;;;19.46;68.49;94792.03;5086303;28;20024;-76
2023/06/15 04:32:25;;;;;;;13.55;10.18;;;;;;;19.55;68.52;94789.03;5068267;28;20051;-74
2023/06/15 04:34:54;;;;;;;14.60;11.45;;;;;;;19.58;68.21;94797.19;5084868;28;20027;-74
2023/06/15 04:37:20;;;;;;;13.48;10.55;;;;;;;19.61;68.25;94798.22;5085110;28;20020;-75
2023/06/15 04:39:45;;;;;;;12.98;10.70;;;;;;;19.67;68.11;94801.03;5085350;28;20039;-75
2023/06/15 04:42:11;;;;;;;12.80;10.13;;;;;;;19.66;67.82;94794.69;5086448;28;20030;-74
2023/06/15 04:44:37;;;;;;;12.57;10.38;;;;;;;19.68;67.59;94805.38;5085258;28;20028;-74
2023/06/15 04:47:04;;;;;;;13.85;10.88;;;;;;;19.71;67.45;94798.75;5086234;28;20564;-75
2023/06/15 04:49:31;;;;;;;12.63;10.35;;;;;;;19.69;67.38;94799.28;5084713;28;20493;-77
2023/06/15 04:51:57;;;;;;;12.25;10.32;;;;;;;19.72;67.35;94801.03;5084278;28;20023;-77
2023/06/15 04:54:22;;;;;;;15.05;11.30;;;;;;;19.74;67.60;94795.00;5084825;28;20020;-73
2023/06/15 04:56:47;;;;;;;14.02;11.55;;;;;;;19.74;67.53;94798.53;5086077;28;20024;-75
2023/06/15 04:59:13;;;;;;;13.80;11.45;;;;;;;19.76;67.31;94801.59;5086242;28;20058;-76
2023/06/15 05:01:38;;;;;;;14.05;11.18;;;;;;;19.80;67.58;94810.47;5085025;28;20085;-77
2023/06/15 05:04:05;;;;;;;13.20;11.32;;;;;;;19.81;67.47;94800.09;5084654;28;20030;-76
2023/06/15 05:06:30;;;;;;;15.73;11.50;;;;;;;19.82;67.43;94810.72;5084348;28;20039;-76
2023/06/15 05:08:56;;;;;;;13.95;10.85;;;;;;;19.85;67.49;94806.97;5084274;28;20081;-75
2023/06/15 05:11:21;;;;;;;12.80;11.38;;;;;;;19.87;67.21;94825.97;5086269;28;20024;-76
2023/06/15 05:13:46;;;;;;;14.57;11.25;;;;;;;19.88;67.29;94819.13;5085953;28;20069;-77
2023/06/15 05:16:12;;;;;;;12.75;10.57;;;;;;;19.87;66.76;94818.38;5084884;28;20387;-75
2023/06/15 05:18:38;;;;;;;12.93;11.05;;;;;;;19.92;67.00;94813.31;5085093;28;20497;-76
2023/06/15 05:21:03;;;;;;;14.43;11.40;;;;;;;19.93;66.49;94818.38;5086125;28;20085;-76
2023/06/15 05:23:28;;;;;;;11.40;10.20;;;;;;;19.98;66.58;94820.44;5085998;28;20501;-76
2023/06/15 05:25:54;;;;;;;13.10;10.90;;;;;;;20.02;66.19;94820.22;5067251;28;20103;-75
2023/06/15 05:28:20;;;;;;;12.30;10.80;;;;;;;20.05;66.37;94819.94;5085164;28;20032;-75
2023/06/15 05:30:45;;;;;;;12.38;10.85;;;;;;;20.09;66.26;94825.31;5085675;28;20056;-75
2023/06/15 05:33:11;;;;;;;12.77;10.48;;;;;;;20.14;66.25;94816.19;5067733;28;20017;-75
2023/06/15 05:35:36;;;;;;;15.57;10.57;;;;;;;20.17;65.95;94821.50;5083898;28;20879;-75
2023/06/15 05:38:02;;;;;;;13.50;10.93;;;;;;;20.20;66.32;94825.34;5084613;28;20039;-75
2023/06/15 05:40:27;;;;;;;13.02;11.63;;;;;;;20.26;66.10;94826.13;5085536;28;20039;-75
2023/06/15 05:42:54;;;;;;;13.27;11.48;;;;;;;20.30;65.92;94823.84;5085734;28;20024;-75
2023/06/15 05:45:19;;;;;;;12.52;10.70;;;;;;;20.34;65.74;94829.16;5085684;28;20020;-77
2023/06/15 05:47:45;;;;;;;14.27;10.73;;;;;;;20.34;65.46;94823.59;5083948;28;20032;-76
2023/06/15 05:50:10;;;;;;;13.18;10.93;;;;;;;20.34;65.50;94818.75;5085773;28;20032;-76
2023/06/15 05:52:36;;;;;;;12.90;10.20;;;;;;;20.40;65.33;94827.16;5085234;28;20024;-76
2023/06/15 05:55:01;;;;;;;11.32;9.95;;;;;;;20.45;64.72;94826.41;5086027;28;20107;-76
2023/06/15 05:57:27;;;;;;;11.20;9.15;;;;;;;20.46;64.62;94830.75;5085439;28;20525;-77
2023/06/15 05:59:52;;;;;;;11.73;9.55;;;;;;;20.47;63.54;94831.50;5085789;28;20425;-76
2023/06/15 06:02:17;;;;;;;11.25;9.05;;;;;;;20.49;63.68;94835.34;5085850;28;20029;-75
2023/06/15 06:04:43;;;;;;;11.80;9.23;;;;;;;20.52;63.70;94839.91;5086374;28;20031;-76
2023/06/15 06:07:10;;;;;;;11.95;9.65;;;;;;;20.54;64.12;94831.03;5088271;28;20028;-76
2023/06/15 06:09:37;;;;;;;14.63;10.70;;;;;;;20.58;63.67;94835.09;5087516;28;20460;-74
2023/06/15 06:12:03;;;;;;;11.88;10.57;;;;;;;20.61;63.58;94833.31;5089460;28;20606;-75
2023/06/15 06:14:28;;;;;;;13.55;10.38;;;;;;;20.65;63.67;94829.03;5087458;28;20020;-75
2023/06/15 06:16:55;;;;;;;11.38;10.15;;;;;;;20.73;63.82;94832.06;5088242;28;20024;-75
2023/06/15 06:19:21;;;;;;;12.18;10.88;;;;;;;20.82;63.45;94834.63;5087600;28;20020;-75
2023/06/15 06:21:47;;;;;;;11.75;10.13;;;;;;;20.92;63.35;94824.72;5088854;28;20054;-76
2023/06/15 06:24:12;;;;;;;13.15;10.27;;;;;;;21.02;63.33;94832.84;5089243;28;20406;-76
2023/06/15 06:26:38;;;;;;;11.02;9.48;;;;;;;21.09;62.92;94837.91;5087162;28;20024;-75
2023/06/15 06:29:03;;;;;;;12.52;9.88;;;;;;;21.14;62.68;94839.94;5089376;28;20028;-75
2023/06/15 06:31:29;;;;;;;12.23;8.68;;;;;;;21.10;62.03;94831.81;5087483;28;20046;-76
2023/06/15 06:33:54;;;;;;;14.35;10.18;;;;;;;21.20;62.24;94835.13;5089826;28;20024;-76
2023/06/15 06:36:20;;;;;;;10.50;9.40;;;;;;;21.31;61.86;94832.34;5087521;28;20081;-77
2023/06/15 06:38:45;;;;;;;12.68;10.05;;;;;;;21.33;61.28;94832.59;5088806;28;20081;-75
2023/06/15 06:41:11;;;;;;;12.90;9.50;;;;;;;21.43;61.16;94831.06;5089166;28;20099;-76
2023/06/15 06:43:36;;;;;;;10.95;9.85;;;;;;;21.54;60.94;94833.06;5088568;28;20111;-76
2023/06/15 06:46:01;;;;;;;10.68;9.57;;;;;;;21.64;60.62;94837.13;5089174;28;20028;-76
2023/06/15 06:48:27;;;;;;;13.50;10.65;;;;;;;21.73;61.13;94841.66;5086845;28;20020;-76
2023/06/15 06:50:52;;;;;;;13.80;10.95;;;;;;;21.77;61.20;94836.56;5088432;28;20052;-76
2023/06/15 06:53:18;;;;;;;12.98;9.93;;;;;;;21.81;61.03;94834.28;5088697;28;20415;-76
2023/06/15 06:55:44;;;;;;;11.80;9.55;;;;;;;21.78;59.70;94835.28;5088847;28;20028;-77
2023/06/15 06:58:11;;;;;;;14.52;10.13;;;;;;;21.48;60.35;94844.28;5088540;28;20017;-77
2023/06/15 07:00:36;;;;;;;14.63;10.75;;;;;;;21.28;60.89;94832.59;5087030;28;20036;-76
2023/06/15 07:03:02;;;;;;;12.45;10.30;;;;;;;21.45;60.99;94834.13;5100565;28;20023;-76
2023/06/15 07:05:27;;;;;;;13.23;10.55;;;;;;;21.53;61.36;94830.78;5092474;28;20044;-77
2023/06/15 07:07:53;;;;;;;13.18;11.05;;;;;;;21.44;60.97;94829.00;5086474;28;20051;-77
2023/06/15 07:10:18;;;;;;;12.63;10.90;;;;;;;21.36;61.29;94837.16;5089604;28;20078;-77
2023/06/15 07:12:43;;;;;;;13.35;11.02;;;;;;;21.31;61.85;94843.53;5090873;28;20031;-74
2023/06/15 07:15:09;;;;;;;12.50;10.75;;;;;;;21.36;62.32;94842.75;5086458;28;20503;-73
2023/06/15 07:17:35;;;;;;;19.08;12.80;;;;;;;21.51;63.77;94833.34;5105807;28;20023;-75
2023/06/15 07:20:00;;;;;;;15.05;11.80;;;;;;;21.63;64.25;94829.25;5099017;28;20034;-76
2023/06/15 07:22:26;;;;;;;14.68;11.75;;;;;;;21.69;63.90;94835.59;5087960;28;20024;-75
2023/06/15 07:24:51;;;;;;;12.50;10.43;;;;;;;21.76;63.66;94829.47;5104958;28;20024;-78
2023/06/15 07:27:20;;;;;;;14.48;11.15;;;;;;;21.80;63.57;94832.00;5107815;28;20039;-74
2023/06/15 07:29:46;;;;;;;12.68;10.70;;;;;;;21.87;63.46;94837.06;5100128;28;20024;-74
2023/06/15 07:32:11;;;;;;;14.68;10.70;;;;;;;21.93;63.30;94830.16;5090163;28;20025;-75
2023/06/15 07:34:36;;;;;;;11.18;9.52;;;;;;;21.91;60.71;94832.72;5095705;28;20631;-74
2023/06/15 07:37:02;;;;;;;13.63;10.50;;;;;;;21.93;61.43;94832.97;5090927;28;20020;-76
2023/06/15 07:39:28;;;;;;;12.93;9.95;;;;;;;21.98;61.48;94837.78;5086626;28;20443;-76
2023/06/15 07:41:53;;;;;;;12.60;11.27;;;;;;;21.93;62.46;94835.75;5087568;28;20034;-77
2023/06/15 07:44:19;;;;;;;12.10;10.32;;;;;;;21.79;59.34;94834.00;5086930;28;20339;-77
2023/06/15 07:46:44;;;;;;;11.27;10.07;;;;;;;21.68;59.63;94831.28;5087478;28;20032;-76
2023/06/15 07:49:10;;;;;;;11.93;10.18;;;;;;;21.48;59.61;94827.50;5087139;28;20016;-77
2023/06/15 07:51:35;;;;;;;12.07;10.43;;;;;;;21.36;60.00;94826.00;5086532;28;20012;-76
2023/06/15 07:54:01;;;;;;;11.85;10.30;;;;;;;21.09;61.00;94826.75;5085879;28;20036;-76
2023/06/15 07:56:27;;;;;;;13.40;10.80;;;;;;;21.07;60.92;94820.91;5086299;28;20050;-75
2023/06/15 07:58:52;;;;;;;13.23;10.02;;;;;;;21.17;61.48;94822.94;5085879;28;20027;-75
2023/06/15 08:01:17;;;;;;;14.20;10.45;;;;;;;21.29;62.08;94832.09;5085858;28;20020;-76
2023/06/15 08:03:43;;;;;;;11.48;10.27;;;;;;;21.34;62.06;94833.38;5087207;28;20042;-75
2023/06/15 08:06:09;;;;;;;12.55;10.57;;;;;;;21.28;61.60;94824.97;5084802;28;20123;-75
2023/06/15 08:08:35;;;;;;;11.77;10.57;;;;;;;21.17;60.98;94836.91;5087379;28;20024;-77
2023/06/15 08:11:02;;;;;;;16.05;10.88;;;;;;;21.16;61.70;94823.44;5086618;28;20020;-76
2023/06/15 08:13:27;;;;;;;16.58;11.10;;;;;;;21.22;61.52;94829.81;5087187;28;20036;-75
2023/06/15 08:15:52;;;;;;;11.73;10.43;;;;;;;21.17;62.08;94831.31;5086683;28;20026;-76
2023/06/15 08:18:18;;;;;;;12.90;11.38;;;;;;;21.27;62.91;94834.59;5086892;28;20119;-76
2023/06/15 08:20:43;;;;;;;13.55;11.95;;;;;;;21.27;62.32;94842.97;5087081;28;20019;-75
2023/06/15 08:23:10;;;;;;;14.02;12.13;;;;;;;21.27;62.40;94833.84;5086445;28;20028;-74
2023/06/15 08:25:35;;;;;;;13.73;11.57;;;;;;;21.44;62.09;94835.38;5087087;28;20027;-76
2023/06/15 08:28:01;;;;;;;14.98;10.98;;;;;;;21.59;62.46;94839.94;5085255;28;20085;-76
2023/06/15 08:30:27;;;;;;;14.48;12.95;;;;;;;21.56;61.18;94843.75;5068671;28;20062;-76
2023/06/15 08:32:52;;;;;;;16.48;12.65;;;;;;;21.59;61.12;94848.31;5086460;28;20035;-77
2023/06/15 08:35:18;;;;;;;13.23;11.73;;;;;;;21.64;61.73;94850.34;5086706;28;20020;-76
2023/06/15 08:37:43;;;;;;;13.40;12.00;;;;;;;21.78;61.38;94840.88;5086562;28;20464;-76
2023/06/15 08:40:09;;;;;;;13.55;11.50;;;;;;;21.77;60.75;94847.75;5085148;28;20054;-76
2023/06/15 08:42:35;;;;;;;14.38;10.25;;;;;;;21.73;60.63;94841.66;5085865;28;20027;-77
2023/06/15 08:45:05;;;;;;;12.13;10.82;;;;;;;21.79;60.95;94850.81;5086390;28;20512;-77
2023/06/15 08:47:34;;;;;;;13.18;11.55;;;;;;;21.86;61.40;94841.91;5085350;28;20024;-77
2023/06/15 08:50:02;;;;;;;13.18;11.77;;;;;;;21.85;61.75;94837.59;5085564;28;20032;-76
2023/06/15 08:52:31;;;;;;;12.70;11.32;;;;;;;21.89;61.62;94846.44;5086569;28;20024;-76
2023/06/15 08:54:57;;;;;;;15.63;11.07;;;;;;;21.96;61.58;94851.53;5084679;28;20130;-76
2023/06/15 08:57:22;;;;;;;12.85;11.55;;;;;;;21.99;61.91;94846.94;5085086;28;20020;-76
2023/06/15 08:59:48;;;;;;;17.42;10.82;;;;;;;21.96;61.39;94851.53;5085016;28;20119;-76
2023/06/15 09:02:24;;;;;;;13.95;11.07;;;;;;;21.95;61.82;94860.44;5084182;28;20312;-76
2023/06/15 09:04:51;;;;;;;12.23;10.95;;;;;;;21.61;61.09;94857.72;5084739;28;20024;-76
2023/06/15 09:07:20;;;;;;;14.10;11.02;;;;;;;21.48;61.68;94860.28;5085606;28;20093;-75
2023/06/15 09:10:18;;;;;;;15.48;11.80;;;;;;;21.46;62.93;94858.00;5085012;28;20047;-76
2023/06/15 09:12:45;;;;;;;16.48;12.93;;;;;;;21.44;63.27;94852.16;5084943;28;20111;-75
2023/06/15 09:15:12;;;;;;;15.02;12.43;;;;;;;21.34;64.34;94855.75;5084236;28;20051;-75
2023/06/15 09:17:40;;;;;;;17.75;12.98;;;;;;;21.37;64.59;94858.25;5084693;28;20385;-75
2023/06/15 09:20:06;;;;;;;18.77;14.80;;;;;;;21.31;65.35;94860.31;5084038;28;20081;-75
2023/06/15 09:22:31;;;;;;;15.55;13.95;;;;;;;21.25;65.71;94858.75;5086226;28;20027;-75
2023/06/15 09:24:56;;;;;;;16.77;14.70;;;;;;;21.08;65.78;94867.16;5085802;28;20024;-75
2023/06/15 09:27:22;;;;;;;15.93;13.82;;;;;;;20.94;66.40;94875.28;5085701;28;20043;-75
2023/06/15 09:30:05;;;;;;;19.02;14.45;;;;;;;20.98;66.46;94865.88;5085916;28;20024;-75
2023/06/15 09:32:30;;;;;;;16.08;14.35;;;;;;;21.01;66.94;94870.44;5084578;28;20024;-75
2023/06/15 09:34:58;;;;;;;16.77;15.05;;;;;;;21.02;67.26;94872.72;5085961;28;20051;-75
2023/06/15 09:37:24;;;;;;;19.52;16.70;;;;;;;21.05;67.47;94874.53;5083966;28;20024;-74
2023/06/15 09:39:52;;;;;;;18.23;14.77;;;;;;;21.06;66.73;94878.06;5088150;28;20101;-74
2023/06/15 09:42:17;;;;;;;19.95;16.23;;;;;;;20.79;67.34;94885.91;5088333;28;20471;-75
2023/06/15 09:44:43;;;;;;;23.50;18.70;;;;;;;20.80;67.67;94881.09;5093981;28;20028;-76
2023/06/15 09:47:15;;;;;;;20.33;15.98;;;;;;;20.85;67.70;94883.13;5089836;28;20024;-77
2023/06/15 09:49:44;;;;;;;22.65;17.80;;;;;;;20.84;68.16;94887.19;5088453;28;20031;-75
2023/06/15 09:52:11;;;;;;;21.45;18.05;;;;;;;20.76;68.33;94886.94;5089967;28;20150;-75
2023/06/15 09:54:38;;;;;;;20.83;16.17;;;;;;;20.47;68.54;94890.13;5088048;28;20036;-74
2023/06/15 09:57:04;;;;;;;19.95;15.45;;;;;;;20.01;70.03;94889.16;5088657;28;20035;-75
2023/06/15 09:59:30;;;;;;;18.92;15.00;;;;;;;20.21;69.64;94877.09;5087991;28;20035;-75
2023/06/15 10:01:56;;;;;;;19.20;14.07;;;;;;;20.31;69.35;94881.19;5088425;28;20032;-75
2023/06/15 10:04:25;;;;;;;14.40;10.85;;;;;;;20.39;68.80;94867.50;5088114;28;20089;-75
2023/06/15 10:07:00;;;;;;;14.02;11.75;;;;;;;20.46;69.11;94863.50;5087826;28;20052;-76
2023/06/15 10:09:29;;;;;;;16.75;13.27;;;;;;;20.49;68.89;94873.66;5071412;28;20407;-75
2023/06/15 10:12:07;;;;;;;15.93;13.07;;;;;;;20.49;68.84;94870.88;5087883;28;20565;-76
2023/06/15 10:14:39;;;;;;;16.27;12.77;;;;;;;20.55;68.68;94874.44;5089088;28;20534;-76
2023/06/15 10:17:05;;;;;;;14.82;12.45;;;;;;;20.54;68.17;94879.25;5087820;28;20021;-75
2023/06/15 10:19:43;;;;;;;14.85;11.77;;;;;;;20.41;67.27;94870.56;5087543;28;20107;-76
2023/06/15 10:22:15;;;;;;;16.58;12.77;;;;;;;20.35;68.20;94878.91;5089171;28;20135;-76
2023/06/15 10:24:40;;;;;;;15.77;12.77;;;;;;;20.42;68.46;94880.47;5088590;28;20513;-73
2023/06/15 10:27:06;;;;;;;14.43;12.30;;;;;;;20.49;68.37;94882.03;5087744;28;20032;-74
2023/06/15 10:29:38;;;;;;;14.52;12.48;;;;;;;;;;5088436;28;20020;-76
2023/06/15 10:32:12;;;;;;;13.77;11.57;;;;;;;20.64;68.22;94871.41;5089321;28;20024;-77
2023/06/15 10:34:42;;;;;;;15.27;11.95;;;;;;;20.65;68.27;94865.31;5087416;28;20486;-77
2023/06/15 10:37:26;;;;;;;14.02;11.88;;;;;;;20.72;67.40;94858.47;5087486;28;20031;-77
2023/06/15 10:39:52;;;;;;;13.80;11.13;;;;;;;20.78;67.20;94864.06;5087573;28;20402;-77
2023/06/15 10:42:17;;;;;;;12.35;10.45;;;;;;;20.83;66.80;94858.50;5086722;28;20032;-77
2023/06/15 10:44:42;;;;;;;15.07;11.98;;;;;;;20.87;67.50;94858.22;5087336;28;20028;-77
2023/06/15 10:47:13;;;;;;;14.48;11.77;;;;;;;20.94;67.91;94858.50;5088437;28;20466;-77
2023/06/15 10:49:52;;;;;;;14.85;12.20;;;;;;;21.02;67.42;94853.16;5086459;28;20040;-77
2023/06/15 10:52:18;;;;;;;15.40;12.20;;;;;;;21.10;67.34;94856.97;5088678;28;20031;-76
2023/06/15 10:54:44;;;;;;;13.52;12.07;;;;;;;21.14;66.87;94851.13;5088379;28;20028;-76
2023/06/15 10:57:14;;;;;;;13.93;12.50;;;;;;;21.26;66.08;94851.88;5087447;28;20070;-75
2023/06/15 11:00:08;;;;;;;15.85;12.10;;;;;;;21.36;66.44;94859.53;5086760;28;20020;-75
2023/06/15 11:02:33;;;;;;;;;;;;;;;21.47;66.33;94858.78;5086825;28;20072;-75
2023/06/15 11:05:09;;;;;;;16.42;13.88;;;;;;;21.53;66.66;94855.97;5088261;28;20765;-76
2023/06/15 11:07:41;;;;;;;14.98;13.00;;;;;;;21.63;65.90;94852.38;5087957;28;20375;-75
2023/06/15 11:10:19;;;;;;;14.52;12.63;;;;;;;21.75;65.22;94850.31;5087257;28;20085;-75
2023/06/15 11:12:46;;;;;;;16.90;12.65;;;;;;;21.84;65.27;94841.63;5087931;28;20020;-74
2023/06/15 11:15:16;;;;;;;15.32;13.73;;;;;;;21.93;65.05;94843.41;5088500;28;20034;-75
2023/06/15 11:17:56;;;;;;;14.63;13.00;;;;;;;21.97;64.07;94841.09;5086679;28;20020;-76